sensor_id;sensor_type;location;lat;lon;timestamp;temperature;humidity
18147;DHT22;9199;48.832;9.182;2024-03-02T00:00:19;6.10;99.90
18147;DHT22;9199;48.832;9.182;2024-03-02T00:02:48;6.10;99.90
18147;DHT22;9199;48.832;9.182;2024-03-02T00:05:17;6.10;99.90
18147;DHT22;9199;48.832;9.182;2024-03-02T00:07:52;6.20;99.90
18147;DHT22;9199;48.832;9.182;2024-03-02T00:10:21;6.20;99.90
18147;DHT22;9199;48.832;9.182;2024-03-02T00:12:49;6.30;99.90
18147;DHT22;9199;48.832;9.182;2024-03-02T00:15:31;6.30;99.90
18147;DHT22;9199;48.832;9.182;2024-03-02T00:18:04;6.30;99.90
18147;DHT22;9199;48.832;9.182;2024-03-02T00:20:31;6.30;99.90
18147;DHT22;9199;48.832;9.182;2024-03-02T00:23:03;6.20;99.90
18147;DHT22;9199;48.832;9.182;2024-03-02T00:25:37;6.20;99.90
18147;DHT22;9199;48.832;9.182;2024-03-02T00:28:04;6.10;99.90
18147;DHT22;9199;48.832;9.182;2024-03-02T00:30:55;6.20;99.90
18147;DHT22;9199;48.832;9.182;2024-03-02T00:33:23;6.20;99.90
18147;DHT22;9199;48.832;9.182;2024-03-02T00:35:50;6.30;99.90
18147;DHT22;9199;48.832;9.182;2024-03-02T00:38:18;6.30;99.90
18147;DHT22;9199;48.832;9.182;2024-03-02T00:40:45;6.40;99.90
18147;DHT22;9199;48.832;9.182;2024-03-02T00:43:42;6.50;99.90
18147;DHT22;9199;48.832;9.182;2024-03-02T00:46:13;6.50;99.90
18147;DHT22;9199;48.832;9.182;2024-03-02T00:48:55;6.50;99.90
18147;DHT22;9199;48.832;9.182;2024-03-02T00:51:23;6.40;99.90
18147;DHT22;9199;48.832;9.182;2024-03-02T00:53:52;6.30;99.90
18147;DHT22;9199;48.832;9.182;2024-03-02T00:56:21;6.20;99.90
18147;DHT22;9199;48.832;9.182;2024-03-02T00:58:49;6.30;99.90
18147;DHT22;9199;48.832;9.182;2024-03-02T01:01:15;6.20;99.90
18147;DHT22;9199;48.832;9.182;2024-03-02T01:03:42;6.20;99.90
18147;DHT22;9199;48.832;9.182;2024-03-02T01:06:09;6.10;99.90
18147;DHT22;9199;48.832;9.182;2024-03-02T01:08:36;6.10;99.90
18147;DHT22;9199;48.832;9.182;2024-03-02T01:11:04;6.10;99.90
18147;DHT22;9199;48.832;9.182;2024-03-02T01:13:31;6.00;99.90
18147;DHT22;9199;48.832;9.182;2024-03-02T01:15:58;6.00;99.90
18147;DHT22;9199;48.832;9.182;2024-03-02T01:18:25;6.10;99.90
18147;DHT22;9199;48.832;9.182;2024-03-02T01:20:51;6.10;99.90
18147;DHT22;9199;48.832;9.182;2024-03-02T01:23:20;6.10;99.90
18147;DHT22;9199;48.832;9.182;2024-03-02T01:25:47;6.20;99.90
18147;DHT22;9199;48.832;9.182;2024-03-02T01:28:15;6.30;99.90
18147;DHT22;9199;48.832;9.182;2024-03-02T01:30:42;6.30;99.90
18147;DHT22;9199;48.832;9.182;2024-03-02T01:33:09;6.20;99.90
18147;DHT22;9199;48.832;9.182;2024-03-02T01:35:36;6.10;99.90
18147;DHT22;9199;48.832;9.182;2024-03-02T01:38:03;6.00;99.90
18147;DHT22;9199;48.832;9.182;2024-03-02T01:40:31;5.90;99.90
18147;DHT22;9199;48.832;9.182;2024-03-02T01:42:58;5.80;99.90
18147;DHT22;9199;48.832;9.182;2024-03-02T01:45:26;5.80;99.90
18147;DHT22;9199;48.832;9.182;2024-03-02T01:47:53;5.80;99.90
18147;DHT22;9199;48.832;9.182;2024-03-02T01:50:25;5.80;99.90
18147;DHT22;9199;48.832;9.182;2024-03-02T01:52:52;5.80;99.90
18147;DHT22;9199;48.832;9.182;2024-03-02T01:55:19;5.90;99.90
18147;DHT22;9199;48.832;9.182;2024-03-02T01:57:46;6.00;99.90
18147;DHT22;9199;48.832;9.182;2024-03-02T02:00:14;6.10;99.90
18147;DHT22;9199;48.832;9.182;2024-03-02T02:02:43;6.10;99.90
18147;DHT22;9199;48.832;9.182;2024-03-02T02:05:10;6.10;99.90
18147;DHT22;9199;48.832;9.182;2024-03-02T02:07:36;6.10;99.90
18147;DHT22;9199;48.832;9.182;2024-03-02T02:10:04;6.00;99.90
18147;DHT22;9199;48.832;9.182;2024-03-02T02:12:31;6.00;99.90
18147;DHT22;9199;48.832;9.182;2024-03-02T02:14:57;6.10;99.90
18147;DHT22;9199;48.832;9.182;2024-03-02T02:17:24;6.10;99.90
18147;DHT22;9199;48.832;9.182;2024-03-02T02:19:52;5.80;99.90
18147;DHT22;9199;48.832;9.182;2024-03-02T02:22:20;5.60;99.90
18147;DHT22;9199;48.832;9.182;2024-03-02T02:24:47;5.40;99.90
18147;DHT22;9199;48.832;9.182;2024-03-02T02:27:13;5.20;99.90
18147;DHT22;9199;48.832;9.182;2024-03-02T02:29:41;5.10;99.90
18147;DHT22;9199;48.832;9.182;2024-03-02T02:32:07;5.10;99.90
18147;DHT22;9199;48.832;9.182;2024-03-02T02:34:34;5.00;99.90
18147;DHT22;9199;48.832;9.182;2024-03-02T02:37:01;4.90;99.90
18147;DHT22;9199;48.832;9.182;2024-03-02T02:39:29;4.80;99.90
18147;DHT22;9199;48.832;9.182;2024-03-02T02:41:56;4.80;99.90
18147;DHT22;9199;48.832;9.182;2024-03-02T02:44:23;4.70;99.90
18147;DHT22;9199;48.832;9.182;2024-03-02T02:46:49;4.60;99.90
18147;DHT22;9199;48.832;9.182;2024-03-02T02:49:16;4.60;99.90
18147;DHT22;9199;48.832;9.182;2024-03-02T02:51:43;4.60;99.90
18147;DHT22;9199;48.832;9.182;2024-03-02T02:54:10;4.70;99.90
18147;DHT22;9199;48.832;9.182;2024-03-02T02:56:38;4.70;99.90
18147;DHT22;9199;48.832;9.182;2024-03-02T02:59:04;4.80;99.90
18147;DHT22;9199;48.832;9.182;2024-03-02T03:01:31;4.80;99.90
18147;DHT22;9199;48.832;9.182;2024-03-02T03:03:58;4.90;99.90
18147;DHT22;9199;48.832;9.182;2024-03-02T03:06:24;5.00;99.90
18147;DHT22;9199;48.832;9.182;2024-03-02T03:08:51;5.20;99.90
18147;DHT22;9199;48.832;9.182;2024-03-02T03:11:18;5.30;99.90
18147;DHT22;9199;48.832;9.182;2024-03-02T03:13:46;5.20;99.90
18147;DHT22;9199;48.832;9.182;2024-03-02T03:16:13;5.00;99.90
18147;DHT22;9199;48.832;9.182;2024-03-02T03:18:40;4.90;99.90
18147;DHT22;9199;48.832;9.182;2024-03-02T03:21:07;4.70;99.90
18147;DHT22;9199;48.832;9.182;2024-03-02T03:23:33;4.60;99.90
18147;DHT22;9199;48.832;9.182;2024-03-02T03:26:00;4.50;99.90
18147;DHT22;9199;48.832;9.182;2024-03-02T03:28:27;4.50;99.90
18147;DHT22;9199;48.832;9.182;2024-03-02T03:30:55;4.40;99.90
18147;DHT22;9199;48.832;9.182;2024-03-02T03:33:21;4.40;99.90
18147;DHT22;9199;48.832;9.182;2024-03-02T03:35:48;4.30;99.90
18147;DHT22;9199;48.832;9.182;2024-03-02T03:38:15;4.30;99.90
18147;DHT22;9199;48.832;9.182;2024-03-02T03:40:41;4.30;99.90
18147;DHT22;9199;48.832;9.182;2024-03-02T03:43:09;4.20;99.90
18147;DHT22;9199;48.832;9.182;2024-03-02T03:45:36;4.20;99.90
18147;DHT22;9199;48.832;9.182;2024-03-02T03:48:04;4.20;99.90
18147;DHT22;9199;48.832;9.182;2024-03-02T03:50:31;4.30;99.90
18147;DHT22;9199;48.832;9.182;2024-03-02T03:52:58;4.30;99.90
18147;DHT22;9199;48.832;9.182;2024-03-02T03:55:24;4.30;99.90
18147;DHT22;9199;48.832;9.182;2024-03-02T03:57:51;4.30;99.90
18147;DHT22;9199;48.832;9.182;2024-03-02T04:00:18;4.30;99.90
18147;DHT22;9199;48.832;9.182;2024-03-02T04:02:45;4.30;99.90
18147;DHT22;9199;48.832;9.182;2024-03-02T04:05:13;4.20;99.90
18147;DHT22;9199;48.832;9.182;2024-03-02T04:07:40;4.20;99.90
18147;DHT22;9199;48.832;9.182;2024-03-02T04:10:09;4.20;99.90
18147;DHT22;9199;48.832;9.182;2024-03-02T04:12:36;4.20;99.90
18147;DHT22;9199;48.832;9.182;2024-03-02T04:15:04;4.20;99.90
18147;DHT22;9199;48.832;9.182;2024-03-02T04:17:32;4.10;99.90
18147;DHT22;9199;48.832;9.182;2024-03-02T04:20:01;4.00;99.90
18147;DHT22;9199;48.832;9.182;2024-03-02T04:22:33;3.90;99.90
18147;DHT22;9199;48.832;9.182;2024-03-02T04:25:01;3.90;99.90
18147;DHT22;9199;48.832;9.182;2024-03-02T04:27:30;3.90;99.90
18147;DHT22;9199;48.832;9.182;2024-03-02T04:29:56;4.00;99.90
18147;DHT22;9199;48.832;9.182;2024-03-02T04:32:23;4.00;99.90
18147;DHT22;9199;48.832;9.182;2024-03-02T04:34:50;4.00;99.90
18147;DHT22;9199;48.832;9.182;2024-03-02T04:37:17;4.00;99.90
18147;DHT22;9199;48.832;9.182;2024-03-02T04:39:45;3.90;99.90
18147;DHT22;9199;48.832;9.182;2024-03-02T04:42:11;3.80;99.90
18147;DHT22;9199;48.832;9.182;2024-03-02T04:44:38;3.80;99.90
18147;DHT22;9199;48.832;9.182;2024-03-02T04:47:05;3.70;99.90
18147;DHT22;9199;48.832;9.182;2024-03-02T04:49:32;3.70;99.90
18147;DHT22;9199;48.832;9.182;2024-03-02T04:51:58;3.60;99.90
18147;DHT22;9199;48.832;9.182;2024-03-02T04:54:25;3.60;99.90
18147;DHT22;9199;48.832;9.182;2024-03-02T04:56:53;3.50;99.90
18147;DHT22;9199;48.832;9.182;2024-03-02T04:59:19;3.50;99.90
18147;DHT22;9199;48.832;9.182;2024-03-02T05:01:46;3.50;99.90
18147;DHT22;9199;48.832;9.182;2024-03-02T05:04:13;3.60;99.90
18147;DHT22;9199;48.832;9.182;2024-03-02T05:06:40;3.60;99.90
18147;DHT22;9199;48.832;9.182;2024-03-02T05:09:08;3.70;99.90
18147;DHT22;9199;48.832;9.182;2024-03-02T05:11:34;3.70;99.90
18147;DHT22;9199;48.832;9.182;2024-03-02T05:14:38;3.70;99.90
18147;DHT22;9199;48.832;9.182;2024-03-02T05:17:05;3.70;99.90
18147;DHT22;9199;48.832;9.182;2024-03-02T05:19:31;3.70;99.90
18147;DHT22;9199;48.832;9.182;2024-03-02T05:21:58;3.70;99.90
18147;DHT22;9199;48.832;9.182;2024-03-02T05:24:25;3.70;99.90
18147;DHT22;9199;48.832;9.182;2024-03-02T05:26:53;3.80;99.90
18147;DHT22;9199;48.832;9.182;2024-03-02T05:29:20;3.80;99.90
18147;DHT22;9199;48.832;9.182;2024-03-02T05:31:48;3.70;99.90
18147;DHT22;9199;48.832;9.182;2024-03-02T05:34:15;3.70;99.90
18147;DHT22;9199;48.832;9.182;2024-03-02T05:36:45;3.70;99.90
18147;DHT22;9199;48.832;9.182;2024-03-02T05:39:11;3.70;99.90
18147;DHT22;9199;48.832;9.182;2024-03-02T05:41:39;3.70;99.90
18147;DHT22;9199;48.832;9.182;2024-03-02T05:44:06;3.70;99.90
18147;DHT22;9199;48.832;9.182;2024-03-02T05:46:32;3.60;99.90
18147;DHT22;9199;48.832;9.182;2024-03-02T05:49:00;3.70;99.90
18147;DHT22;9199;48.832;9.182;2024-03-02T05:51:27;3.70;99.90
18147;DHT22;9199;48.832;9.182;2024-03-02T05:53:54;3.70;99.90
18147;DHT22;9199;48.832;9.182;2024-03-02T05:56:21;3.60;99.90
18147;DHT22;9199;48.832;9.182;2024-03-02T05:58:47;3.60;99.90
18147;DHT22;9199;48.832;9.182;2024-03-02T06:01:26;3.60;99.90
18147;DHT22;9199;48.832;9.182;2024-03-02T06:03:55;3.60;99.90
18147;DHT22;9199;48.832;9.182;2024-03-02T06:06:23;4.50;99.90
18147;DHT22;9199;48.832;9.182;2024-03-02T06:08:49;5.30;99.90
18147;DHT22;9199;48.832;9.182;2024-03-02T06:11:16;5.90;99.90
18147;DHT22;9199;48.832;9.182;2024-03-02T06:13:43;6.30;99.90
18147;DHT22;9199;48.832;9.182;2024-03-02T06:16:10;6.70;99.90
18147;DHT22;9199;48.832;9.182;2024-03-02T06:18:37;6.80;99.90
18147;DHT22;9199;48.832;9.182;2024-03-02T06:21:04;6.50;99.90
18147;DHT22;9199;48.832;9.182;2024-03-02T06:23:32;6.10;99.90
18147;DHT22;9199;48.832;9.182;2024-03-02T06:26:00;5.70;99.90
18147;DHT22;9199;48.832;9.182;2024-03-02T06:28:27;5.50;99.90
18147;DHT22;9199;48.832;9.182;2024-03-02T06:30:54;5.40;99.90
18147;DHT22;9199;48.832;9.182;2024-03-02T06:33:21;5.20;99.90
18147;DHT22;9199;48.832;9.182;2024-03-02T06:35:47;5.10;99.90
18147;DHT22;9199;48.832;9.182;2024-03-02T06:38:14;4.90;99.90
18147;DHT22;9199;48.832;9.182;2024-03-02T06:40:42;4.90;99.90
18147;DHT22;9199;48.832;9.182;2024-03-02T06:43:09;4.80;99.90
18147;DHT22;9199;48.832;9.182;2024-03-02T06:45:36;4.90;99.90
18147;DHT22;9199;48.832;9.182;2024-03-02T06:48:03;4.90;99.90
18147;DHT22;9199;48.832;9.182;2024-03-02T06:50:30;5.00;99.90
18147;DHT22;9199;48.832;9.182;2024-03-02T06:52:57;5.00;99.90
18147;DHT22;9199;48.832;9.182;2024-03-02T06:55:24;5.10;99.90
18147;DHT22;9199;48.832;9.182;2024-03-02T06:57:52;5.10;99.90
18147;DHT22;9199;48.832;9.182;2024-03-02T07:00:19;5.20;99.90
18147;DHT22;9199;48.832;9.182;2024-03-02T07:02:46;5.20;99.90
18147;DHT22;9199;48.832;9.182;2024-03-02T07:05:13;5.40;99.90
18147;DHT22;9199;48.832;9.182;2024-03-02T07:07:40;5.60;99.90
18147;DHT22;9199;48.832;9.182;2024-03-02T07:10:08;5.90;99.90
18147;DHT22;9199;48.832;9.182;2024-03-02T07:12:34;6.10;99.90
18147;DHT22;9199;48.832;9.182;2024-03-02T07:15:03;6.30;99.90
18147;DHT22;9199;48.832;9.182;2024-03-02T07:18:02;6.60;99.90
18147;DHT22;9199;48.832;9.182;2024-03-02T07:20:29;7.00;99.90
18147;DHT22;9199;48.832;9.182;2024-03-02T07:22:56;7.40;99.90
18147;DHT22;9199;48.832;9.182;2024-03-02T07:25:22;7.80;99.90
18147;DHT22;9199;48.832;9.182;2024-03-02T07:27:49;8.00;99.90
18147;DHT22;9199;48.832;9.182;2024-03-02T07:30:17;8.20;99.90
18147;DHT22;9199;48.832;9.182;2024-03-02T07:32:44;8.40;99.90
18147;DHT22;9199;48.832;9.182;2024-03-02T07:35:12;8.60;99.90
18147;DHT22;9199;48.832;9.182;2024-03-02T07:37:39;8.70;99.90
18147;DHT22;9199;48.832;9.182;2024-03-02T07:40:08;8.90;99.90
18147;DHT22;9199;48.832;9.182;2024-03-02T07:42:36;9.10;99.90
18147;DHT22;9199;48.832;9.182;2024-03-02T07:45:04;9.20;99.90
18147;DHT22;9199;48.832;9.182;2024-03-02T07:47:33;9.10;99.90
18147;DHT22;9199;48.832;9.182;2024-03-02T07:50:00;9.00;99.90
18147;DHT22;9199;48.832;9.182;2024-03-02T07:52:26;8.80;99.90
18147;DHT22;9199;48.832;9.182;2024-03-02T07:54:53;8.70;99.90
18147;DHT22;9199;48.832;9.182;2024-03-02T07:57:20;8.60;99.90
18147;DHT22;9199;48.832;9.182;2024-03-02T07:59:47;8.60;99.90
18147;DHT22;9199;48.832;9.182;2024-03-02T08:02:14;8.60;99.90
18147;DHT22;9199;48.832;9.182;2024-03-02T08:04:42;8.60;99.90
18147;DHT22;9199;48.832;9.182;2024-03-02T08:07:11;8.50;99.90
18147;DHT22;9199;48.832;9.182;2024-03-02T08:09:37;8.40;99.90
18147;DHT22;9199;48.832;9.182;2024-03-02T08:12:05;8.40;99.90
18147;DHT22;9199;48.832;9.182;2024-03-02T08:14:31;8.40;99.90
18147;DHT22;9199;48.832;9.182;2024-03-02T08:16:58;8.40;99.90
18147;DHT22;9199;48.832;9.182;2024-03-02T08:19:27;8.40;99.90
18147;DHT22;9199;48.832;9.182;2024-03-02T08:21:55;8.50;99.90
18147;DHT22;9199;48.832;9.182;2024-03-02T08:24:21;8.50;99.90
18147;DHT22;9199;48.832;9.182;2024-03-02T08:26:48;8.60;99.90
18147;DHT22;9199;48.832;9.182;2024-03-02T08:29:15;8.70;99.90
18147;DHT22;9199;48.832;9.182;2024-03-02T08:31:41;8.90;99.90
18147;DHT22;9199;48.832;9.182;2024-03-02T08:34:08;9.20;99.90
18147;DHT22;9199;48.832;9.182;2024-03-02T08:36:35;9.70;99.90
18147;DHT22;9199;48.832;9.182;2024-03-02T08:39:03;10.20;99.90
18147;DHT22;9199;48.832;9.182;2024-03-02T08:41:40;10.60;99.90
18147;DHT22;9199;48.832;9.182;2024-03-02T08:44:07;11.00;99.90
18147;DHT22;9199;48.832;9.182;2024-03-02T08:46:34;11.50;99.90
18147;DHT22;9199;48.832;9.182;2024-03-02T08:49:01;12.00;99.90
18147;DHT22;9199;48.832;9.182;2024-03-02T08:51:28;12.70;99.90
18147;DHT22;9199;48.832;9.182;2024-03-02T08:53:54;13.40;99.90
18147;DHT22;9199;48.832;9.182;2024-03-02T08:56:22;13.90;99.90
18147;DHT22;9199;48.832;9.182;2024-03-02T08:58:49;14.10;99.90
18147;DHT22;9199;48.832;9.182;2024-03-02T09:01:16;14.60;99.90
18147;DHT22;9199;48.832;9.182;2024-03-02T09:03:43;15.00;99.90
18147;DHT22;9199;48.832;9.182;2024-03-02T09:06:11;15.30;99.80
18147;DHT22;9199;48.832;9.182;2024-03-02T09:08:37;15.40;99.50
18147;DHT22;9199;48.832;9.182;2024-03-02T09:11:05;15.60;98.60
18147;DHT22;9199;48.832;9.182;2024-03-02T09:13:34;15.80;98.00
18147;DHT22;9199;48.832;9.182;2024-03-02T09:16:01;16.10;97.10
18147;DHT22;9199;48.832;9.182;2024-03-02T09:18:28;16.70;96.30
18147;DHT22;9199;48.832;9.182;2024-03-02T09:20:55;16.90;95.50
18147;DHT22;9199;48.832;9.182;2024-03-02T09:23:22;17.00;95.60
18147;DHT22;9199;48.832;9.182;2024-03-02T09:25:48;17.60;94.00
18147;DHT22;9199;48.832;9.182;2024-03-02T09:28:15;17.70;93.70
18147;DHT22;9199;48.832;9.182;2024-03-02T09:30:44;17.60;93.30
18147;DHT22;9199;48.832;9.182;2024-03-02T09:33:10;17.50;93.30
18147;DHT22;9199;48.832;9.182;2024-03-02T09:35:37;17.50;92.60
18147;DHT22;9199;48.832;9.182;2024-03-02T09:38:04;17.20;92.50
18147;DHT22;9199;48.832;9.182;2024-03-02T09:40:30;17.20;92.20
18147;DHT22;9199;48.832;9.182;2024-03-02T09:42:57;17.50;92.90
18147;DHT22;9199;48.832;9.182;2024-03-02T09:45:26;17.70;91.60
18147;DHT22;9199;48.832;9.182;2024-03-02T09:47:55;17.90;91.40
18147;DHT22;9199;48.832;9.182;2024-03-02T09:50:21;18.30;91.00
18147;DHT22;9199;48.832;9.182;2024-03-02T09:52:48;18.70;90.20
18147;DHT22;9199;48.832;9.182;2024-03-02T09:55:16;18.70;89.80
18147;DHT22;9199;48.832;9.182;2024-03-02T09:57:44;19.00;89.00
18147;DHT22;9199;48.832;9.182;2024-03-02T10:00:12;19.30;88.20
18147;DHT22;9199;48.832;9.182;2024-03-02T10:02:40;19.60;86.00
18147;DHT22;9199;48.832;9.182;2024-03-02T10:05:09;19.80;84.70
18147;DHT22;9199;48.832;9.182;2024-03-02T10:07:37;20.00;83.90
18147;DHT22;9199;48.832;9.182;2024-03-02T10:10:12;20.00;83.90
18147;DHT22;9199;48.832;9.182;2024-03-02T10:12:39;20.20;82.40
18147;DHT22;9199;48.832;9.182;2024-03-02T10:15:06;20.40;81.30
18147;DHT22;9199;48.832;9.182;2024-03-02T10:17:35;20.40;79.60
18147;DHT22;9199;48.832;9.182;2024-03-02T10:20:21;20.50;81.30
18147;DHT22;9199;48.832;9.182;2024-03-02T10:22:48;21.20;78.10
18147;DHT22;9199;48.832;9.182;2024-03-02T10:25:28;21.50;77.60
18147;DHT22;9199;48.832;9.182;2024-03-02T10:27:57;21.70;78.40
18147;DHT22;9199;48.832;9.182;2024-03-02T10:30:24;21.70;77.10
18147;DHT22;9199;48.832;9.182;2024-03-02T10:32:52;21.60;74.90
18147;DHT22;9199;48.832;9.182;2024-03-02T10:35:21;22.30;72.10
18147;DHT22;9199;48.832;9.182;2024-03-02T10:37:48;22.50;71.50
18147;DHT22;9199;48.832;9.182;2024-03-02T10:40:16;22.30;73.20
18147;DHT22;9199;48.832;9.182;2024-03-02T10:42:44;21.80;73.60
18147;DHT22;9199;48.832;9.182;2024-03-02T10:45:12;22.30;70.60
18147;DHT22;9199;48.832;9.182;2024-03-02T10:47:41;23.30;68.60
18147;DHT22;9199;48.832;9.182;2024-03-02T10:50:09;23.60;68.20
18147;DHT22;9199;48.832;9.182;2024-03-02T10:52:37;24.00;67.50
18147;DHT22;9199;48.832;9.182;2024-03-02T10:55:05;23.40;68.00
18147;DHT22;9199;48.832;9.182;2024-03-02T10:57:41;22.80;68.80
18147;DHT22;9199;48.832;9.182;2024-03-02T11:00:12;23.00;67.60
18147;DHT22;9199;48.832;9.182;2024-03-02T11:02:42;24.00;66.10
18147;DHT22;9199;48.832;9.182;2024-03-02T11:05:13;24.30;62.90
18147;DHT22;9199;48.832;9.182;2024-03-02T11:07:43;25.00;62.20
18147;DHT22;9199;48.832;9.182;2024-03-02T11:10:11;25.10;61.60
18147;DHT22;9199;48.832;9.182;2024-03-02T11:12:43;24.50;62.60
18147;DHT22;9199;48.832;9.182;2024-03-02T11:15:18;25.00;59.50
18147;DHT22;9199;48.832;9.182;2024-03-02T11:17:46;24.70;59.60
18147;DHT22;9199;48.832;9.182;2024-03-02T11:20:14;25.20;58.80
18147;DHT22;9199;48.832;9.182;2024-03-02T11:22:42;25.30;57.60
18147;DHT22;9199;48.832;9.182;2024-03-02T11:25:23;25.60;56.20
18147;DHT22;9199;48.832;9.182;2024-03-02T11:28:00;25.40;56.50
18147;DHT22;9199;48.832;9.182;2024-03-02T11:30:49;25.30;57.40
18147;DHT22;9199;48.832;9.182;2024-03-02T11:33:26;25.60;56.30
18147;DHT22;9199;48.832;9.182;2024-03-02T11:35:56;25.70;54.80
18147;DHT22;9199;48.832;9.182;2024-03-02T11:38:31;26.00;54.60
18147;DHT22;9199;48.832;9.182;2024-03-02T11:41:00;26.10;54.70
18147;DHT22;9199;48.832;9.182;2024-03-02T11:43:28;26.50;53.90
18147;DHT22;9199;48.832;9.182;2024-03-02T11:45:58;27.00;52.40
18147;DHT22;9199;48.832;9.182;2024-03-02T11:48:25;27.00;50.10
18147;DHT22;9199;48.832;9.182;2024-03-02T11:50:52;27.00;49.70
18147;DHT22;9199;48.832;9.182;2024-03-02T11:53:20;27.10;48.60
18147;DHT22;9199;48.832;9.182;2024-03-02T11:55:49;27.10;47.90
18147;DHT22;9199;48.832;9.182;2024-03-02T11:58:16;27.50;47.50
18147;DHT22;9199;48.832;9.182;2024-03-02T12:00:45;27.50;48.00
18147;DHT22;9199;48.832;9.182;2024-03-02T12:03:13;27.10;46.30
18147;DHT22;9199;48.832;9.182;2024-03-02T12:05:41;26.60;46.90
18147;DHT22;9199;48.832;9.182;2024-03-02T12:08:08;26.50;46.70
18147;DHT22;9199;48.832;9.182;2024-03-02T12:10:36;26.50;44.70
18147;DHT22;9199;48.832;9.182;2024-03-02T12:13:05;26.30;45.80
18147;DHT22;9199;48.832;9.182;2024-03-02T12:15:34;25.90;45.40
18147;DHT22;9199;48.832;9.182;2024-03-02T12:18:03;26.10;45.60
18147;DHT22;9199;48.832;9.182;2024-03-02T12:20:30;26.90;44.30
18147;DHT22;9199;48.832;9.182;2024-03-02T12:22:59;27.60;42.60
18147;DHT22;9199;48.832;9.182;2024-03-02T12:25:26;27.20;44.10
18147;DHT22;9199;48.832;9.182;2024-03-02T12:27:54;27.50;43.20
18147;DHT22;9199;48.832;9.182;2024-03-02T12:30:23;28.10;42.50
18147;DHT22;9199;48.832;9.182;2024-03-02T12:32:50;28.50;41.40
18147;DHT22;9199;48.832;9.182;2024-03-02T12:35:18;29.10;40.50
18147;DHT22;9199;48.832;9.182;2024-03-02T12:37:45;29.10;39.10
18147;DHT22;9199;48.832;9.182;2024-03-02T12:40:13;29.30;38.70
18147;DHT22;9199;48.832;9.182;2024-03-02T12:42:40;29.20;38.90
18147;DHT22;9199;48.832;9.182;2024-03-02T12:45:08;28.60;38.70
18147;DHT22;9199;48.832;9.182;2024-03-02T12:47:37;28.60;38.80
18147;DHT22;9199;48.832;9.182;2024-03-02T12:50:04;28.60;39.20
18147;DHT22;9199;48.832;9.182;2024-03-02T12:52:32;28.80;39.10
18147;DHT22;9199;48.832;9.182;2024-03-02T12:55:00;29.10;38.50
18147;DHT22;9199;48.832;9.182;2024-03-02T12:57:30;29.60;37.50
18147;DHT22;9199;48.832;9.182;2024-03-02T12:59:58;29.90;37.00
18147;DHT22;9199;48.832;9.182;2024-03-02T13:02:28;30.20;36.80
18147;DHT22;9199;48.832;9.182;2024-03-02T13:04:57;30.50;36.50
18147;DHT22;9199;48.832;9.182;2024-03-02T13:07:25;30.20;36.00
18147;DHT22;9199;48.832;9.182;2024-03-02T13:09:52;30.50;35.80
18147;DHT22;9199;48.832;9.182;2024-03-02T13:12:21;30.50;35.50
18147;DHT22;9199;48.832;9.182;2024-03-02T13:14:48;30.50;35.90
18147;DHT22;9199;48.832;9.182;2024-03-02T13:17:17;30.20;35.80
18147;DHT22;9199;48.832;9.182;2024-03-02T13:19:51;30.30;36.60
18147;DHT22;9199;48.832;9.182;2024-03-02T13:22:19;30.50;35.50
18147;DHT22;9199;48.832;9.182;2024-03-02T13:24:46;31.10;34.90
18147;DHT22;9199;48.832;9.182;2024-03-02T13:27:13;31.50;34.10
18147;DHT22;9199;48.832;9.182;2024-03-02T13:29:40;31.80;33.60
18147;DHT22;9199;48.832;9.182;2024-03-02T13:32:07;32.40;32.60
18147;DHT22;9199;48.832;9.182;2024-03-02T13:34:35;32.80;31.90
18147;DHT22;9199;48.832;9.182;2024-03-02T13:37:02;32.80;30.90
18147;DHT22;9199;48.832;9.182;2024-03-02T13:39:30;32.70;31.20
18147;DHT22;9199;48.832;9.182;2024-03-02T13:41:57;32.30;32.50
18147;DHT22;9199;48.832;9.182;2024-03-02T13:44:29;32.80;31.00
18147;DHT22;9199;48.832;9.182;2024-03-02T13:46:56;32.10;30.90
18147;DHT22;9199;48.832;9.182;2024-03-02T13:49:23;32.10;31.50
18147;DHT22;9199;48.832;9.182;2024-03-02T13:51:54;32.40;31.00
18147;DHT22;9199;48.832;9.182;2024-03-02T13:54:22;33.00;29.90
18147;DHT22;9199;48.832;9.182;2024-03-02T13:56:50;33.50;29.70
18147;DHT22;9199;48.832;9.182;2024-03-02T13:59:17;33.70;29.60
18147;DHT22;9199;48.832;9.182;2024-03-02T14:01:44;33.50;29.50
18147;DHT22;9199;48.832;9.182;2024-03-02T14:04:11;33.00;30.00
18147;DHT22;9199;48.832;9.182;2024-03-02T14:06:38;32.60;29.70
18147;DHT22;9199;48.832;9.182;2024-03-02T14:09:05;32.50;29.60
18147;DHT22;9199;48.832;9.182;2024-03-02T14:11:31;31.80;30.20
18147;DHT22;9199;48.832;9.182;2024-03-02T14:13:59;31.00;30.80
18147;DHT22;9199;48.832;9.182;2024-03-02T14:16:26;30.90;31.40
18147;DHT22;9199;48.832;9.182;2024-03-02T14:18:53;30.80;30.60
18147;DHT22;9199;48.832;9.182;2024-03-02T14:21:20;31.10;30.30
18147;DHT22;9199;48.832;9.182;2024-03-02T14:23:46;30.90;30.80
18147;DHT22;9199;48.832;9.182;2024-03-02T14:26:13;30.90;31.30
18147;DHT22;9199;48.832;9.182;2024-03-02T14:28:40;31.20;30.70
18147;DHT22;9199;48.832;9.182;2024-03-02T14:31:08;31.20;30.40
18147;DHT22;9199;48.832;9.182;2024-03-02T14:33:34;30.60;31.10
18147;DHT22;9199;48.832;9.182;2024-03-02T14:36:01;30.40;32.50
18147;DHT22;9199;48.832;9.182;2024-03-02T14:38:29;29.40;32.50
18147;DHT22;9199;48.832;9.182;2024-03-02T14:40:56;29.00;32.80
18147;DHT22;9199;48.832;9.182;2024-03-02T14:43:24;29.50;31.70
18147;DHT22;9199;48.832;9.182;2024-03-02T14:45:50;29.90;32.10
18147;DHT22;9199;48.832;9.182;2024-03-02T14:48:18;30.80;30.50
18147;DHT22;9199;48.832;9.182;2024-03-02T14:50:45;31.30;29.90
18147;DHT22;9199;48.832;9.182;2024-03-02T14:53:12;31.50;30.10
18147;DHT22;9199;48.832;9.182;2024-03-02T14:55:39;30.90;30.80
18147;DHT22;9199;48.832;9.182;2024-03-02T14:58:05;30.00;31.70
18147;DHT22;9199;48.832;9.182;2024-03-02T15:00:33;29.60;31.30
18147;DHT22;9199;48.832;9.182;2024-03-02T15:03:00;27.80;33.20
18147;DHT22;9199;48.832;9.182;2024-03-02T15:05:28;26.60;34.30
18147;DHT22;9199;48.832;9.182;2024-03-02T15:07:55;25.50;35.70
18147;DHT22;9199;48.832;9.182;2024-03-02T15:10:24;25.90;36.10
18147;DHT22;9199;48.832;9.182;2024-03-02T15:12:51;26.80;34.50
18147;DHT22;9199;48.832;9.182;2024-03-02T15:15:17;27.00;33.90
18147;DHT22;9199;48.832;9.182;2024-03-02T15:17:44;27.40;33.60
18147;DHT22;9199;48.832;9.182;2024-03-02T15:20:11;26.90;33.90
18147;DHT22;9199;48.832;9.182;2024-03-02T15:22:39;25.80;35.40
18147;DHT22;9199;48.832;9.182;2024-03-02T15:25:06;24.60;37.10
18147;DHT22;9199;48.832;9.182;2024-03-02T15:27:33;23.50;37.80
18147;DHT22;9199;48.832;9.182;2024-03-02T15:30:01;22.20;39.30
18147;DHT22;9199;48.832;9.182;2024-03-02T15:32:28;21.20;41.10
18147;DHT22;9199;48.832;9.182;2024-03-02T15:34:55;20.10;42.50
18147;DHT22;9199;48.832;9.182;2024-03-02T15:37:23;19.70;43.30
18147;DHT22;9199;48.832;9.182;2024-03-02T15:39:51;19.40;43.50
18147;DHT22;9199;48.832;9.182;2024-03-02T15:42:17;19.10;43.90
18147;DHT22;9199;48.832;9.182;2024-03-02T15:44:44;18.90;44.60
18147;DHT22;9199;48.832;9.182;2024-03-02T15:47:11;18.60;44.30
18147;DHT22;9199;48.832;9.182;2024-03-02T15:49:38;18.40;44.30
18147;DHT22;9199;48.832;9.182;2024-03-02T15:52:05;18.10;44.90
18147;DHT22;9199;48.832;9.182;2024-03-02T15:54:31;17.90;45.10
18147;DHT22;9199;48.832;9.182;2024-03-02T15:56:59;17.60;45.90
18147;DHT22;9199;48.832;9.182;2024-03-02T15:59:26;17.30;46.40